Time;durP1;ratioP1;P1;durP2;ratioP2;P2;SDS_P1;SDS_P2;PMS_P1;PMS_P2;Temp;Humidity;BMP_temperature;BMP_pressure;BME280_temperature;BME280_humidity;BME280_pressure;Samples;Min_cycle;Max_cycle;Signal;HPM_P1;HPM_P2
2023/01/29 00:01:29;;;;;;;0.60;0.60;;;-1.20;99.90;;;;;;5114294;28;20276;-73
2023/01/29 00:03:55;;;;;;;0.55;0.55;;;-1.20;99.90;;;;;;5114104;28;20190;-73
2023/01/29 00:06:22;;;;;;;0.68;0.68;;;-1.20;99.90;;;;;;5095214;28;20677;-73
2023/01/29 00:08:48;;;;;;;0.70;0.70;;;-1.20;99.90;;;;;;5096136;28;20195;-73
2023/01/29 00:11:15;;;;;;;0.68;0.68;;;-1.20;99.90;;;;;;5114455;28;20203;-73
2023/01/29 00:13:41;;;;;;;0.70;0.70;;;-1.20;99.90;;;;;;5114006;28;20192;-73
2023/01/29 00:16:08;;;;;;;0.60;0.60;;;-1.20;99.90;;;;;;5096037;28;20195;-74
2023/01/29 00:18:40;;;;;;;0.60;0.60;;;-1.20;99.90;;;;;;5092374;28;20204;-72
2023/01/29 00:21:17;;;;;;;0.60;0.60;;;-1.20;99.90;;;;;;5093182;28;20542;-73
2023/01/29 00:23:43;;;;;;;0.70;0.70;;;-1.30;99.90;;;;;;5093677;28;20179;-73
2023/01/29 00:26:10;;;;;;;0.80;0.80;;;-1.30;99.90;;;;;;5093936;28;20241;-73
2023/01/29 00:28:36;;;;;;;0.80;0.80;;;-1.30;99.90;;;;;;5093460;28;20196;-72
2023/01/29 00:31:15;;;;;;;0.80;0.80;;;-1.30;99.90;;;;;;5075671;28;20283;-73
2023/01/29 00:33:41;;;;;;;0.68;0.68;;;-1.30;99.90;;;;;;5093464;28;20199;-73
2023/01/29 00:36:10;;;;;;;0.68;0.68;;;-1.30;99.90;;;;;;5075559;28;20192;-73
2023/01/29 00:38:36;;;;;;;0.70;0.70;;;-1.30;99.90;;;;;;5093422;28;20685;-74
2023/01/29 00:46:42;;;;;;;0.60;0.60;;;-1.30;99.90;;;;;;5113791;28;20207;-74
2023/01/29 00:49:09;;;;;;;0.60;0.60;;;-1.30;99.90;;;;;;5113874;28;20195;-74
2023/01/29 00:51:36;;;;;;;0.70;0.70;;;-1.30;99.90;;;;;;5095430;28;20641;-74
2023/01/29 00:54:05;;;;;;;0.80;0.80;;;-1.30;99.90;;;;;;5095464;28;20180;-73
2023/01/29 00:56:33;;;;;;;0.70;0.70;;;-1.30;99.90;;;;;;5113586;28;20536;-71
2023/01/29 00:58:59;;;;;;;0.73;0.73;;;-1.30;99.90;;;;;;5114137;28;20248;-74
2023/01/29 01:04:22;;;;;;;0.70;0.70;;;-1.40;99.90;;;;;;5068015;28;20250;-74
2023/01/29 01:06:48;;;;;;;0.70;0.70;;;-1.40;99.90;;;;;;5113439;28;20195;-73
2023/01/29 01:11:58;;;;;;;0.60;0.60;;;-1.50;99.90;;;;;;5113934;28;20566;-73
2023/01/29 01:14:24;;;;;;;0.68;0.68;;;-1.50;99.90;;;;;;5113861;28;20191;-73
2023/01/29 01:16:49;;;;;;;0.70;0.70;;;-1.50;99.90;;;;;;5113535;28;20685;-73
2023/01/29 01:19:16;;;;;;;0.70;0.70;;;-1.60;99.90;;;;;;5113482;28;20195;-74
2023/01/29 01:21:47;;;;;;;0.70;0.70;;;-1.50;99.90;;;;;;5112758;28;20666;-74
2023/01/29 01:24:12;;;;;;;0.65;0.65;;;-1.60;99.90;;;;;;5113321;28;20241;-74
2023/01/29 01:26:38;;;;;;;0.63;0.63;;;-1.60;99.90;;;;;;5113350;28;21294;-73
2023/01/29 01:29:04;;;;;;;0.73;0.73;;;-1.60;99.90;;;;;;5113882;28;20190;-73
2023/01/29 01:31:30;;;;;;;0.60;0.60;;;-1.60;99.90;;;;;;5113702;28;20668;-74
2023/01/29 01:33:56;;;;;;;0.70;0.70;;;-1.70;99.90;;;;;;5098901;28;20278;-73
2023/01/29 01:36:21;;;;;;;0.70;0.70;;;-1.70;99.90;;;;;;5117141;28;20232;-73
2023/01/29 01:38:47;;;;;;;0.70;0.70;;;-1.70;99.90;;;;;;5117165;28;20248;-73
2023/01/29 01:41:16;;;;;;;1.15;0.95;;;-1.70;99.90;;;;;;5116925;28;20203;-73
2023/01/29 01:44:02;;;;;;;0.60;0.60;;;-1.70;99.90;;;;;;5116960;28;20681;-73
2023/01/29 01:46:33;;;;;;;0.60;0.60;;;-1.70;99.90;;;;;;5098579;28;20191;-73
2023/01/29 01:49:14;;;;;;;0.70;0.70;;;-1.70;99.90;;;;;;5098765;28;20195;-73
2023/01/29 01:51:45;;;;;;;0.70;0.70;;;-1.70;99.90;;;;;;5117143;28;20682;-73
2023/01/29 01:54:26;;;;;;;0.70;0.70;;;-1.70;99.90;;;;;;5098815;28;20191;-74
2023/01/29 01:57:07;;;;;;;0.85;0.85;;;-1.70;99.90;;;;;;5116854;28;20633;-73
2023/01/29 01:59:39;;;;;;;0.70;0.70;;;-1.70;99.90;;;;;;5098324;28;20206;-73
2023/01/29 02:10:23;;;;;;;0.70;0.70;;;-1.70;99.90;;;;;;5083118;28;20223;-72
2023/01/29 02:12:50;;;;;;;0.68;0.68;;;-1.70;99.90;;;;;;5075298;28;20651;-73
2023/01/29 02:15:16;;;;;;;0.60;0.60;;;-1.80;99.90;;;;;;5075350;28;20651;-73
2023/01/29 02:17:44;;;;;;;0.70;0.70;;;-1.80;99.90;;;;;;5079158;28;20257;-73
2023/01/29 02:20:28;;;;;;;0.70;0.70;;;-1.80;99.90;;;;;;5075244;28;20246;-72
2023/01/29 02:23:01;;;;;;;0.60;0.60;;;-1.70;99.90;;;;;;5075052;28;20562;-72
2023/01/29 02:26:04;;;;;;;0.75;0.75;;;-1.70;99.90;;;;;;5075065;28;20620;-72
2023/01/29 02:28:33;;;;;;;0.60;0.60;;;-1.70;99.90;;;;;;5074809;28;20507;-73
2023/01/29 02:31:22;;;;;;;0.60;0.60;;;-1.80;99.90;;;;;;5075311;28;20192;-73
2023/01/29 02:34:16;;;;;;;0.60;0.60;;;-1.80;99.90;;;;;;5074999;28;20205;-72
2023/01/29 02:36:54;;;;;;;0.60;0.60;;;-1.80;99.90;;;;;;5076367;28;20203;-73
2023/01/29 02:39:34;;;;;;;0.68;0.68;;;-1.80;99.90;;;;;;5074648;28;20188;-73
2023/01/29 02:42:17;;;;;;;0.82;0.82;;;-1.80;99.90;;;;;;5075052;28;20185;-73
2023/01/29 02:44:51;;;;;;;0.60;0.60;;;-1.90;99.90;;;;;;5073769;28;20197;-72
2023/01/29 02:47:20;;;;;;;0.60;0.60;;;-1.80;99.90;;;;;;5074682;28;20654;-73
2023/01/29 02:49:57;;;;;;;0.70;0.70;;;-1.80;99.90;;;;;;5074590;28;20200;-72
2023/01/29 02:52:49;;;;;;;0.63;0.63;;;-1.70;99.90;;;;;;5074377;28;20241;-73
2023/01/29 02:55:52;;;;;;;1.02;1.02;;;-1.70;99.90;;;;;;5074559;28;20313;-73
2023/01/29 02:58:31;;;;;;;0.75;0.75;;;-1.70;99.90;;;;;;5073177;28;20197;-73
2023/01/29 03:01:22;;;;;;;0.70;0.70;;;-1.70;99.90;;;;;;5081264;28;20204;-72
2023/01/29 03:03:54;;;;;;;0.68;0.68;;;-1.60;99.90;;;;;;5092838;28;20224;-73
2023/01/29 03:06:34;;;;;;;0.70;0.70;;;-1.50;99.90;;;;;;5094427;28;20695;-73
2023/01/29 03:09:04;;;;;;;0.60;0.60;;;-1.50;99.90;;;;;;5094534;28;20192;-73
2023/01/29 03:11:49;;;;;;;0.70;0.70;;;-1.60;99.90;;;;;;5093054;28;20202;-72
2023/01/29 03:15:10;;;;;;;0.60;0.60;;;-1.60;99.90;;;;;;5094487;28;20697;-72
2023/01/29 03:17:31;;;;;;;0.70;0.70;;;-1.60;99.90;;;;;;5087577;28;20193;-73
2023/01/29 03:19:57;;;;;;;0.70;0.70;;;-1.60;99.90;;;;;;5074079;28;20638;-72
2023/01/29 03:22:24;;;;;;;0.65;0.65;;;-1.70;99.90;;;;;;5073716;28;20284;-72
2023/01/29 03:33:25;;;;;;;0.80;0.80;;;-1.70;99.90;;;;;;5086981;28;20685;-72
2023/01/29 03:35:59;;;;;;;0.70;0.70;;;-1.70;99.90;;;;;;5093960;28;20199;-72
2023/01/29 03:38:28;;;;;;;0.88;0.88;;;-1.60;99.90;;;;;;5093646;28;20657;-72
2023/01/29 03:41:18;;;;;;;0.70;0.70;;;-1.70;99.90;;;;;;5092424;28;20208;-72
2023/01/29 03:43:49;;;;;;;0.70;0.70;;;-1.70;99.90;;;;;;5093866;28;20564;-72
2023/01/29 03:46:41;;;;;;;0.70;0.70;;;-1.70;99.90;;;;;;5093915;28;20184;-72
2023/01/29 03:49:24;;;;;;;0.70;0.70;;;-1.70;99.90;;;;;;5092475;28;20200;-72
2023/01/29 03:52:22;;;;;;;0.60;0.60;;;-1.80;99.90;;;;;;5093858;28;20617;-72
2023/01/29 03:55:34;;;;;;;0.85;0.85;;;-1.70;99.90;;;;;;5084991;28;20699;-72
2023/01/29 03:58:16;;;;;;;0.50;0.50;;;-1.80;99.90;;;;;;5034636;28;20635;-73
2023/01/29 04:01:06;;;;;;;0.70;0.70;;;-1.80;99.90;;;;;;5050547;28;20225;-72
2023/01/29 04:03:46;;;;;;;0.60;0.60;;;-1.80;99.90;;;;;;5040278;28;20452;-72
2023/01/29 04:06:21;;;;;;;0.70;0.70;;;-1.80;99.90;;;;;;5031228;28;20345;-72
2023/01/29 04:09:04;;;;;;;0.60;0.60;;;-1.90;99.90;;;;;;5031191;28;20206;-72
2023/01/29 04:11:32;;;;;;;0.63;0.63;;;-1.90;99.90;;;;;;5030945;28;20232;-72
2023/01/29 04:13:58;;;;;;;1.15;1.15;;;-1.90;99.90;;;;;;5031201;28;20691;-72
2023/01/29 04:16:30;;;;;;;2.35;2.15;;;-1.90;99.90;;;;;;5030772;28;20206;-72
2023/01/29 04:18:56;;;;;;;0.60;0.60;;;-2.00;99.90;;;;;;5049896;28;20197;-72
2023/01/29 04:21:23;;;;;;;1.48;1.38;;;-2.00;99.90;;;;;;5050638;28;20753;-72
2023/01/29 04:23:49;;;;;;;2.00;1.10;;;-2.00;99.90;;;;;;5050895;28;20197;-72
2023/01/29 04:26:32;;;;;;;0.70;0.70;;;-2.10;99.90;;;;;;5050953;28;20193;-73
2023/01/29 04:29:18;;;;;;;0.60;0.60;;;-2.10;99.90;;;;;;5066790;28;20200;-72
2023/01/29 04:32:08;;;;;;;1.10;1.10;;;-2.20;99.90;;;;;;5072335;28;20208;-72
2023/01/29 04:34:57;;;;;;;0.70;0.70;;;-2.20;99.90;;;;;;5071525;28;20204;-73
2023/01/29 04:37:49;;;;;;;0.60;0.60;;;-2.30;99.90;;;;;;5072505;28;20224;-72
2023/01/29 04:40:22;;;;;;;0.70;0.70;;;-2.30;99.90;;;;;;5080189;28;20595;-73
2023/01/29 04:43:01;;;;;;;0.70;0.70;;;-2.30;99.90;;;;;;5092869;28;20345;-72
2023/01/29 04:45:26;;;;;;;0.70;0.70;;;-2.30;99.90;;;;;;5091563;28;20200;-72
2023/01/29 04:48:01;;;;;;;0.75;0.75;;;-2.20;99.90;;;;;;5091470;28;20207;-73
2023/01/29 04:50:38;;;;;;;1.35;1.25;;;-2.10;99.90;;;;;;5092773;28;20184;-72
2023/01/29 04:53:22;;;;;;;0.70;0.70;;;-2.10;99.90;;;;;;5092841;28;20203;-72
2023/01/29 04:56:03;;;;;;;0.70;0.70;;;-2.00;99.90;;;;;;5092604;28;20286;-72
2023/01/29 04:58:39;;;;;;;0.80;0.80;;;-1.90;99.90;;;;;;5092745;28;20205;-72
2023/01/29 05:01:09;;;;;;;0.70;0.70;;;-1.80;99.90;;;;;;5091560;28;20211;-72
2023/01/29 05:03:38;;;;;;;0.60;0.60;;;-1.80;99.90;;;;;;5090934;28;20721;-72
2023/01/29 05:06:05;;;;;;;0.60;0.60;;;-1.70;99.90;;;;;;5091644;28;20203;-73
2023/01/29 05:08:32;;;;;;;0.70;0.70;;;-1.70;99.90;;;;;;5096384;28;20717;-72
2023/01/29 05:10:59;;;;;;;0.80;0.80;;;-1.60;99.90;;;;;;5096825;28;20275;-72
2023/01/29 05:13:27;;;;;;;0.60;0.60;;;-1.60;99.90;;;;;;5095207;28;20203;-72
2023/01/29 05:15:55;;;;;;;0.70;0.70;;;-1.60;99.90;;;;;;5096750;28;20185;-72
2023/01/29 05:18:21;;;;;;;0.80;0.80;;;-1.60;99.90;;;;;;5096253;28;20662;-73
2023/01/29 05:20:48;;;;;;;0.60;0.60;;;-1.60;99.90;;;;;;5095162;28;20222;-73
2023/01/29 05:23:18;;;;;;;0.90;0.90;;;-1.60;99.90;;;;;;5096442;28;20188;-72
2023/01/29 05:25:45;;;;;;;0.90;0.90;;;-1.50;99.90;;;;;;5085353;28;20224;-72
2023/01/29 05:28:17;;;;;;;1.25;1.20;;;-1.50;99.90;;;;;;5076200;28;20185;-72
2023/01/29 05:30:45;;;;;;;0.70;0.70;;;-1.50;99.90;;;;;;5075916;28;20192;-73
2023/01/29 05:33:18;;;;;;;1.27;1.10;;;-1.40;99.90;;;;;;5076115;28;20223;-72
2023/01/29 05:35:45;;;;;;;0.60;0.60;;;-1.40;99.90;;;;;;5078204;28;20223;-71
2023/01/29 05:38:11;;;;;;;1.25;1.10;;;-1.40;99.90;;;;;;5096239;28;20562;-72
2023/01/29 05:40:37;;;;;;;0.70;0.70;;;-1.40;99.90;;;;;;5094543;28;20347;-72
2023/01/29 05:43:04;;;;;;;0.70;0.70;;;-1.40;99.90;;;;;;5096122;28;20220;-72
2023/01/29 05:45:30;;;;;;;0.82;0.82;;;-1.40;99.90;;;;;;5095931;28;20188;-72
2023/01/29 05:47:57;;;;;;;0.60;0.60;;;-1.50;99.90;;;;;;5094843;28;20192;-72
2023/01/29 05:50:24;;;;;;;0.80;0.80;;;-1.50;99.90;;;;;;5096106;28;20196;-73
2023/01/29 05:52:56;;;;;;;0.60;0.60;;;-1.60;99.90;;;;;;5094609;28;20196;-73
2023/01/29 05:55:21;;;;;;;5.03;2.15;;;-1.60;99.90;;;;;;5095727;28;20662;-73
2023/01/29 05:57:47;;;;;;;0.70;0.70;;;-1.60;99.90;;;;;;5095876;28;20191;-72
2023/01/29 06:00:13;;;;;;;0.70;0.70;;;-1.60;99.90;;;;;;5095710;28;20215;-72
2023/01/29 06:02:39;;;;;;;0.63;0.63;;;-1.60;99.90;;;;;;5095384;28;20693;-71
2023/01/29 06:05:05;;;;;;;0.70;0.70;;;-1.70;99.90;;;;;;5077690;28;20200;-72
2023/01/29 06:07:31;;;;;;;0.63;0.63;;;-1.60;99.90;;;;;;5077248;28;20654;-73
2023/01/29 06:09:56;;;;;;;0.70;0.70;;;-1.60;99.90;;;;;;5095559;28;20236;-72
2023/01/29 06:12:22;;;;;;;0.60;0.60;;;-1.60;99.90;;;;;;5095414;28;20279;-72
2023/01/29 06:14:48;;;;;;;0.60;0.60;;;-1.60;99.90;;;;;;5077462;28;20196;-74
2023/01/29 06:17:13;;;;;;;0.68;0.68;;;-1.60;99.90;;;;;;5077756;28;20203;-72
2023/01/29 06:19:39;;;;;;;0.60;0.60;;;-1.60;99.90;;;;;;5094095;28;20581;-73
2023/01/29 06:22:05;;;;;;;2.17;1.98;;;-1.60;99.90;;;;;;5063931;28;20666;-72
2023/01/29 06:24:31;;;;;;;0.70;0.70;;;-1.60;99.90;;;;;;5056910;28;20189;-73
2023/01/29 06:26:57;;;;;;;0.70;0.70;;;-1.60;99.90;;;;;;5075198;28;20670;-73
2023/01/29 06:29:23;;;;;;;0.57;0.57;;;-1.60;99.90;;;;;;5056914;28;20193;-73
2023/01/29 06:31:48;;;;;;;0.68;0.68;;;-1.50;99.90;;;;;;5075167;28;20204;-73
2023/01/29 06:34:14;;;;;;;0.70;0.70;;;-1.50;99.90;;;;;;5075170;28;20193;-72
2023/01/29 06:36:40;;;;;;;0.90;0.90;;;-1.40;99.90;;;;;;5074645;28;20220;-72
2023/01/29 06:39:06;;;;;;;0.70;0.70;;;-1.40;99.90;;;;;;5074977;28;20277;-72
2023/01/29 06:41:32;;;;;;;0.63;0.63;;;-1.40;99.90;;;;;;5056636;28;20258;-72
2023/01/29 06:43:58;;;;;;;0.70;0.70;;;-1.30;99.90;;;;;;5074811;28;20228;-72
2023/01/29 06:46:24;;;;;;;0.70;0.70;;;-1.20;99.90;;;;;;5074641;28;20220;-73
2023/01/29 06:48:49;;;;;;;0.63;0.63;;;-1.10;99.90;;;;;;5064479;28;20201;-73
2023/01/29 06:51:15;;;;;;;0.70;0.70;;;-1.10;99.90;;;;;;5053766;28;20259;-74
2023/01/29 06:53:41;;;;;;;2.03;1.88;;;-1.10;99.90;;;;;;5036498;28;20544;-73
2023/01/29 06:56:07;;;;;;;0.60;0.60;;;-1.10;99.90;;;;;;5054627;28;20272;-72
2023/01/29 06:58:35;;;;;;;0.73;0.73;;;-1.00;99.90;;;;;;5054447;28;20193;-73
2023/01/29 07:01:09;;;;;;;0.70;0.70;;;-1.00;99.90;;;;;;5054280;28;20252;-72
2023/01/29 07:03:35;;;;;;;0.70;0.70;;;-1.00;99.90;;;;;;5068023;28;20590;-72
2023/01/29 07:06:02;;;;;;;0.70;0.70;;;-1.00;99.90;;;;;;5074499;28;20203;-72
2023/01/29 07:08:27;;;;;;;0.60;0.60;;;-1.00;99.90;;;;;;5090221;28;20200;-72
2023/01/29 07:11:01;;;;;;;0.70;0.70;;;-1.00;99.90;;;;;;5093218;28;20202;-74
2023/01/29 07:13:27;;;;;;;1.02;1.02;;;-1.00;99.90;;;;;;5092852;28;20200;-72
2023/01/29 07:15:56;;;;;;;0.80;0.80;;;-0.90;99.90;;;;;;5094318;28;20685;-73
2023/01/29 07:18:22;;;;;;;0.60;0.60;;;-0.90;99.90;;;;;;5093600;28;20195;-72
2023/01/29 07:20:47;;;;;;;0.70;0.70;;;-0.90;99.90;;;;;;5094097;28;20219;-73
2023/01/29 07:23:14;;;;;;;0.60;0.60;;;-0.90;99.90;;;;;;5094256;28;20192;-72
2023/01/29 07:25:40;;;;;;;0.60;0.60;;;-0.90;99.90;;;;;;5093835;28;20192;-72
2023/01/29 07:28:06;;;;;;;0.73;0.73;;;-0.80;99.90;;;;;;5093927;28;20188;-72
2023/01/29 07:30:32;;;;;;;0.70;0.70;;;-0.70;99.90;;;;;;5093499;28;20188;-71
2023/01/29 07:33:05;;;;;;;0.60;0.60;;;-0.70;99.90;;;;;;5093885;28;20210;-72
2023/01/29 07:35:34;;;;;;;0.60;0.60;;;-0.70;99.90;;;;;;5093744;28;20654;-72
2023/01/29 07:38:00;;;;;;;0.68;0.68;;;-0.70;99.90;;;;;;5092554;28;20282;-71
2023/01/29 07:40:26;;;;;;;0.65;0.65;;;-0.70;99.90;;;;;;5093526;28;20279;-72
2023/01/29 07:42:58;;;;;;;0.50;0.50;;;-0.70;99.90;;;;;;5093791;28;20197;-73
2023/01/29 07:45:23;;;;;;;0.60;0.60;;;-0.60;99.90;;;;;;5093303;28;20192;-72
2023/01/29 07:47:53;;;;;;;0.60;0.60;;;-0.50;99.90;;;;;;5093762;28;20196;-72
2023/01/29 07:50:20;;;;;;;0.70;0.70;;;-0.40;99.90;;;;;;5092117;28;20196;-72
2023/01/29 07:52:46;;;;;;;0.40;0.40;;;-0.30;99.90;;;;;;5092366;28;20253;-73
2023/01/29 07:55:11;;;;;;;0.70;0.70;;;-0.20;99.90;;;;;;5092365;28;20295;-73
2023/01/29 07:57:37;;;;;;;0.73;0.73;;;-0.20;99.90;;;;;;5093026;28;20211;-72
2023/01/29 08:00:03;;;;;;;0.60;0.60;;;-0.10;99.90;;;;;;5093320;28;20236;-71
2023/01/29 08:02:29;;;;;;;0.43;0.43;;;-0.10;99.90;;;;;;5092911;28;20265;-71
2023/01/29 08:04:54;;;;;;;0.60;0.60;;;0.00;99.90;;;;;;5093299;28;20207;-72
2023/01/29 08:07:20;;;;;;;0.57;0.57;;;0.00;99.90;;;;;;5093308;28;20184;-72
2023/01/29 08:09:46;;;;;;;0.60;0.60;;;0.00;99.90;;;;;;5093362;28;20596;-72
2023/01/29 08:12:11;;;;;;;0.60;0.60;;;0.00;99.90;;;;;;5093413;28;20246;-72
2023/01/29 08:14:38;;;;;;;0.52;0.52;;;0.00;99.90;;;;;;5092735;28;20255;-71
2023/01/29 08:17:03;;;;;;;0.70;0.70;;;0.00;99.90;;;;;;5092870;28;20565;-72
2023/01/29 08:19:29;;;;;;;0.60;0.60;;;0.00;99.90;;;;;;5092961;28;20196;-72
2023/01/29 08:21:55;;;;;;;0.60;0.60;;;0.00;99.90;;;;;;5093079;28;20286;-72
2023/01/29 08:24:20;;;;;;;0.60;0.60;;;0.10;99.90;;;;;;5092676;28;20265;-72
2023/01/29 08:26:46;;;;;;;0.50;0.50;;;0.10;99.90;;;;;;5093075;28;20267;-72
2023/01/29 08:29:12;;;;;;;0.50;0.50;;;0.10;99.90;;;;;;5093115;28;20189;-72
2023/01/29 08:31:38;;;;;;;1.30;1.20;;;0.20;99.90;;;;;;5091668;28;20204;-72
2023/01/29 08:34:03;;;;;;;0.60;0.60;;;0.30;99.90;;;;;;5074752;28;20285;-72
2023/01/29 08:36:29;;;;;;;0.60;0.60;;;0.40;99.90;;;;;;5072436;28;20562;-72
2023/01/29 08:38:55;;;;;;;0.52;0.52;;;0.40;99.90;;;;;;5072781;28;20238;-72
2023/01/29 08:41:20;;;;;;;0.57;0.57;;;0.40;99.90;;;;;;5082045;28;20200;-73
2023/01/29 08:43:46;;;;;;;0.60;0.60;;;0.40;99.90;;;;;;5092846;28;20191;-73
2023/01/29 08:46:12;;;;;;;0.65;0.65;;;0.40;99.90;;;;;;5092960;28;20322;-72
2023/01/29 08:48:37;;;;;;;0.70;0.70;;;0.40;99.90;;;;;;5092693;28;20199;-72
2023/01/29 08:51:04;;;;;;;0.60;0.60;;;0.40;99.90;;;;;;5092972;28;20219;-72
2023/01/29 08:53:30;;;;;;;0.60;0.60;;;0.50;99.90;;;;;;5091658;28;20196;-72
2023/01/29 08:55:56;;;;;;;0.60;0.60;;;0.50;99.90;;;;;;5093000;28;20196;-72
2023/01/29 08:58:22;;;;;;;0.60;0.60;;;0.60;99.90;;;;;;5092674;28;20604;-73
2023/01/29 09:00:48;;;;;;;1.05;0.73;;;0.60;99.90;;;;;;5092672;28;20290;-73
2023/01/29 09:03:13;;;;;;;0.50;0.50;;;0.70;99.90;;;;;;5091179;28;20219;-72
2023/01/29 09:05:40;;;;;;;0.70;0.70;;;0.70;99.90;;;;;;5091337;28;20228;-73
2023/01/29 09:08:07;;;;;;;0.68;0.68;;;0.80;99.90;;;;;;5092809;28;20267;-72
2023/01/29 09:10:33;;;;;;;0.57;0.57;;;0.80;99.90;;;;;;5083002;28;20196;-73
2023/01/29 09:12:59;;;;;;;0.60;0.60;;;0.80;99.90;;;;;;5071331;28;20200;-72
2023/01/29 09:15:25;;;;;;;0.70;0.70;;;0.80;99.90;;;;;;5072251;28;20221;-73
2023/01/29 09:17:51;;;;;;;0.60;0.60;;;0.90;99.90;;;;;;5078001;28;20255;-72
2023/01/29 09:20:18;;;;;;;0.47;0.47;;;1.00;99.90;;;;;;5072189;28;20304;-73
2023/01/29 09:22:44;;;;;;;0.60;0.60;;;1.00;99.90;;;;;;5091030;28;20563;-72
2023/01/29 09:25:11;;;;;;;0.70;0.70;;;1.20;99.90;;;;;;5092660;28;20190;-72
2023/01/29 09:27:36;;;;;;;0.60;0.60;;;1.30;99.90;;;;;;5092460;28;20240;-73
2023/01/29 09:30:06;;;;;;;0.60;0.60;;;1.30;99.90;;;;;;5092516;28;20212;-71
2023/01/29 09:32:33;;;;;;;0.70;0.70;;;1.30;99.90;;;;;;5090821;28;20196;-72
2023/01/29 09:34:58;;;;;;;0.70;0.70;;;1.30;99.90;;;;;;5092632;28;20219;-73
2023/01/29 09:37:24;;;;;;;0.60;0.60;;;1.30;99.90;;;;;;5092026;28;20196;-74
2023/01/29 09:39:50;;;;;;;0.40;0.40;;;1.30;99.90;;;;;;5092273;28;20189;-72
2023/01/29 09:42:42;;;;;;;0.70;0.70;;;1.40;99.90;;;;;;5092232;28;20196;-73
2023/01/29 09:45:29;;;;;;;0.60;0.60;;;1.40;99.90;;;;;;5092720;28;20199;-74
2023/01/29 09:48:02;;;;;;;0.60;0.60;;;1.50;99.90;;;;;;5092391;28;20215;-74
2023/01/29 09:50:34;;;;;;;0.73;0.73;;;1.70;99.90;;;;;;5092209;28;20560;-72
2023/01/29 09:53:16;;;;;;;0.60;0.60;;;1.90;99.90;;;;;;5092184;28;20215;-73
2023/01/29 09:55:50;;;;;;;0.60;0.60;;;2.10;99.90;;;;;;5095927;28;20265;-73
2023/01/29 09:58:42;;;;;;;0.50;0.50;;;2.30;99.90;;;;;;5096007;28;20275;-73
2023/01/29 10:01:21;;;;;;;0.60;0.60;;;2.30;99.90;;;;;;5093792;28;20231;-73
2023/01/29 10:04:08;;;;;;;0.63;0.63;;;2.30;99.90;;;;;;5111426;28;20223;-74
2023/01/29 10:06:40;;;;;;;0.60;0.60;;;2.30;99.90;;;;;;5088284;28;20188;-74
2023/01/29 10:09:44;;;;;;;0.55;0.55;;;2.30;99.90;;;;;;5096017;28;20661;-74
2023/01/29 10:12:34;;;;;;;0.47;0.47;;;2.50;99.90;;;;;;5072083;28;20325;-73
2023/01/29 10:15:27;;;;;;;0.60;0.60;;;2.70;99.90;;;;;;5095820;28;20203;-74
2023/01/29 10:18:23;;;;;;;0.65;0.65;;;2.80;99.90;;;;;;5094977;28;20207;-74
2023/01/29 10:21:23;;;;;;;0.60;0.60;;;2.80;99.90;;;;;;5095310;28;20581;-74
2023/01/29 10:24:08;;;;;;;0.60;0.60;;;2.70;99.90;;;;;;5095396;28;20191;-74
2023/01/29 10:26:36;;;;;;;0.60;0.60;;;2.80;99.90;;;;;;5076839;28;20192;-74
2023/01/29 10:29:05;;;;;;;0.60;0.60;;;2.90;99.90;;;;;;5095429;28;20219;-74
2023/01/29 10:31:37;;;;;;;0.60;0.60;;;2.90;99.90;;;;;;5076914;28;20207;-74
2023/01/29 10:34:24;;;;;;;0.50;0.50;;;3.00;99.90;;;;;;5095043;28;20189;-73
2023/01/29 10:36:49;;;;;;;0.50;0.50;;;3.00;99.90;;;;;;5095173;28;20639;-73
2023/01/29 10:39:19;;;;;;;0.60;0.60;;;3.00;99.90;;;;;;5076942;28;20196;-72
2023/01/29 10:41:54;;;;;;;0.60;0.60;;;3.20;99.90;;;;;;5094931;28;20204;-73
2023/01/29 10:44:37;;;;;;;0.60;0.60;;;3.20;99.90;;;;;;5076675;28;20195;-71
2023/01/29 10:47:09;;;;;;;0.50;0.50;;;3.20;99.90;;;;;;5094986;28;20216;-71
2023/01/29 10:50:16;;;;;;;0.60;0.60;;;3.10;99.90;;;;;;5094731;28;20195;-72
2023/01/29 10:53:03;;;;;;;0.70;0.70;;;3.10;99.90;;;;;;5094610;28;20690;-72
2023/01/29 10:55:37;;;;;;;0.50;0.50;;;3.10;99.90;;;;;;5094610;28;20555;-71
2023/01/29 10:58:22;;;;;;;0.60;0.60;;;3.10;99.90;;;;;;5094750;28;20188;-73
2023/01/29 11:00:48;;;;;;;2.08;1.90;;;3.20;99.90;;;;;;5094478;28;20295;-72
2023/01/29 11:03:25;;;;;;;0.68;0.68;;;3.30;99.90;;;;;;5094137;28;20307;-71
2023/01/29 11:06:15;;;;;;;0.52;0.52;;;3.30;99.90;;;;;;5092741;28;20199;-72
2023/01/29 11:08:41;;;;;;;0.50;0.50;;;3.30;99.90;;;;;;5094200;28;20195;-70
2023/01/29 11:11:08;;;;;;;0.50;0.50;;;3.20;99.90;;;;;;5094529;28;20192;-72
2023/01/29 11:13:42;;;;;;;0.60;0.60;;;3.20;99.90;;;;;;5094143;28;20610;-70
2023/01/29 11:16:09;;;;;;;0.60;0.60;;;3.20;99.90;;;;;;5093394;28;20613;-74
2023/01/29 11:18:52;;;;;;;0.60;0.60;;;3.20;99.90;;;;;;5089241;28;20193;-70
2023/01/29 11:21:18;;;;;;;0.57;0.57;;;3.20;99.90;;;;;;5092686;28;20216;-72
2023/01/29 11:23:45;;;;;;;0.60;0.60;;;3.20;99.90;;;;;;5094680;28;20188;-71
2023/01/29 11:26:16;;;;;;;0.70;0.70;;;3.20;99.90;;;;;;5094249;28;20215;-71
2023/01/29 11:28:41;;;;;;;0.50;0.50;;;3.20;99.90;;;;;;5094035;28;20227;-71
2023/01/29 11:31:35;;;;;;;0.70;0.70;;;3.20;99.90;;;;;;5092639;28;20246;-71
2023/01/29 11:34:12;;;;;;;0.63;0.63;;;3.10;99.90;;;;;;5094022;28;20688;-71
2023/01/29 11:36:38;;;;;;;0.50;0.50;;;3.10;99.90;;;;;;5093841;28;20721;-72
2023/01/29 11:39:15;;;;;;;0.60;0.60;;;3.10;99.90;;;;;;5094048;28;20219;-71
2023/01/29 11:42:16;;;;;;;0.50;0.50;;;3.10;99.90;;;;;;5093510;28;20215;-72
2023/01/29 11:44:42;;;;;;;0.70;0.70;;;3.10;99.90;;;;;;5093296;28;20191;-72
2023/01/29 11:47:22;;;;;;;0.50;0.50;;;3.00;99.90;;;;;;5093614;28;20719;-71
2023/01/29 11:49:56;;;;;;;0.60;0.60;;;3.00;99.90;;;;;;5092052;28;20198;-72
2023/01/29 11:52:25;;;;;;;0.63;0.63;;;3.10;99.90;;;;;;5092278;28;20203;-72
2023/01/29 11:54:53;;;;;;;0.60;0.60;;;3.20;99.90;;;;;;5092301;28;20710;-72
2023/01/29 11:57:49;;;;;;;0.60;0.60;;;3.20;99.90;;;;;;5093356;28;20188;-72
2023/01/29 12:00:41;;;;;;;0.60;0.60;;;3.20;99.90;;;;;;5091064;28;20208;-71
2023/01/29 12:03:12;;;;;;;0.70;0.70;;;3.20;99.90;;;;;;5092656;28;20594;-72
2023/01/29 12:05:51;;;;;;;0.55;0.55;;;3.10;99.90;;;;;;5093003;28;20188;-72
2023/01/29 12:08:17;;;;;;;0.60;0.60;;;3.00;99.90;;;;;;5093302;28;20267;-75
2023/01/29 12:10:44;;;;;;;0.50;0.50;;;3.00;99.90;;;;;;5092216;28;20203;-74
2023/01/29 12:13:14;;;;;;;0.60;0.60;;;3.10;99.90;;;;;;5093242;28;20662;-74
2023/01/29 12:15:43;;;;;;;0.65;0.65;;;3.10;99.90;;;;;;5093110;28;20195;-74
2023/01/29 12:18:24;;;;;;;0.85;0.82;;;3.10;99.90;;;;;;5092530;28;20204;-74
2023/01/29 12:21:04;;;;;;;0.50;0.50;;;3.20;99.90;;;;;;5093523;28;20626;-73
2023/01/29 12:23:54;;;;;;;0.57;0.57;;;3.20;99.90;;;;;;5093128;28;20218;-73
2023/01/29 12:26:54;;;;;;;0.60;0.60;;;3.30;99.90;;;;;;5092839;28;20555;-73
2023/01/29 12:29:55;;;;;;;0.60;0.60;;;3.30;99.90;;;;;;5092481;28;20208;-75
2023/01/29 12:32:48;;;;;;;0.47;0.47;;;3.20;99.90;;;;;;5091473;28;20286;-73
2023/01/29 12:35:32;;;;;;;0.60;0.60;;;3.20;99.90;;;;;;5093034;28;20199;-74
2023/01/29 12:38:17;;;;;;;0.43;0.43;;;3.30;99.90;;;;;;5092890;28;20266;-73
2023/01/29 12:40:48;;;;;;;0.60;0.60;;;3.40;99.90;;;;;;5090804;28;20212;-73
2023/01/29 12:43:17;;;;;;;0.50;0.50;;;3.50;99.90;;;;;;5092776;28;20192;-74
2023/01/29 12:45:46;;;;;;;0.52;0.52;;;3.60;99.90;;;;;;5091791;28;20188;-74
2023/01/29 12:48:23;;;;;;;0.50;0.50;;;3.70;99.90;;;;;;5091555;28;20203;-74
2023/01/29 12:50:52;;;;;;;0.50;0.50;;;3.70;99.90;;;;;;5091898;28;20568;-73
2023/01/29 12:53:36;;;;;;;0.50;0.50;;;3.70;99.90;;;;;;5093026;28;20218;-74
2023/01/29 12:56:46;;;;;;;0.60;0.60;;;3.70;99.90;;;;;;5093177;28;20200;-74
2023/01/29 12:59:52;;;;;;;0.43;0.43;;;3.70;99.90;;;;;;5070694;28;20624;-74
2023/01/29 13:02:38;;;;;;;0.60;0.60;;;3.70;99.90;;;;;;5050223;28;20328;-74
2023/01/29 13:05:12;;;;;;;0.40;0.40;;;3.70;99.90;;;;;;5069068;28;20447;-74
2023/01/29 13:07:45;;;;;;;0.50;0.50;;;3.70;99.90;;;;;;5070146;28;20270;-74
2023/01/29 13:10:15;;;;;;;0.60;0.60;;;3.80;99.90;;;;;;5070797;28;20197;-74
2023/01/29 13:13:05;;;;;;;0.60;0.60;;;4.00;99.90;;;;;;5070149;28;20197;-74
2023/01/29 13:15:38;;;;;;;0.60;0.60;;;4.10;99.90;;;;;;5053267;28;20343;-73
2023/01/29 13:18:19;;;;;;;0.50;0.50;;;4.20;99.90;;;;;;5069960;28;20203;-73
2023/01/29 13:20:48;;;;;;;0.60;0.60;;;4.20;99.90;;;;;;5069919;28;20217;-72
2023/01/29 13:23:30;;;;;;;2.45;2.25;;;4.30;99.90;;;;;;5085454;28;20686;-72
2023/01/29 13:25:56;;;;;;;0.70;0.70;;;4.40;99.90;;;;;;5073073;28;20204;-72
2023/01/29 13:28:25;;;;;;;0.60;0.60;;;4.40;99.90;;;;;;5092060;28;20206;-72
2023/01/29 13:31:17;;;;;;;0.65;0.65;;;4.50;99.90;;;;;;5093941;28;20651;-73
2023/01/29 13:33:51;;;;;;;0.68;0.68;;;4.50;99.90;;;;;;5094850;28;20212;-72
2023/01/29 13:36:23;;;;;;;1.20;1.13;;;4.50;99.90;;;;;;5096096;28;20219;-71
2023/01/29 13:38:58;;;;;;;0.55;0.55;;;4.50;99.90;;;;;;5094304;28;20677;-71
2023/01/29 13:41:32;;;;;;;0.50;0.50;;;4.60;99.90;;;;;;5085620;28;20697;-72
2023/01/29 13:43:58;;;;;;;0.50;0.50;;;4.50;99.90;;;;;;5075476;28;20185;-72
2023/01/29 13:46:24;;;;;;;0.70;0.70;;;4.40;99.90;;;;;;5075434;28;20239;-73
2023/01/29 13:48:53;;;;;;;0.68;0.68;;;4.40;99.90;;;;;;5074339;28;20284;-74